createdAt,value
2023-07-15T00:00:15.855Z,1.70
2023-07-15T00:02:24.484Z,1.90
2023-07-15T00:04:35.547Z,1.60
2023-07-15T00:06:45.862Z,1.73
2023-07-15T00:08:55.631Z,1.67
2023-07-15T00:11:06.450Z,1.90
2023-07-15T00:13:18.039Z,2.00
2023-07-15T00:15:26.983Z,2.00
2023-07-15T00:17:36.434Z,1.97
2023-07-15T00:19:45.091Z,1.90
2023-07-15T00:21:54.568Z,1.90
2023-07-15T00:24:04.249Z,1.80
2023-07-15T00:26:14.659Z,2.00
2023-07-15T00:28:23.929Z,1.80
2023-07-15T00:30:33.676Z,1.80
2023-07-15T00:32:42.539Z,2.10
2023-07-15T00:34:51.483Z,1.83
2023-07-15T00:37:00.398Z,1.83
2023-07-15T00:39:09.857Z,2.20
2023-07-15T00:41:21.597Z,1.60
2023-07-15T00:43:49.628Z,1.90
2023-07-15T00:46:13.143Z,1.57
2023-07-15T00:48:27.271Z,1.77
2023-07-15T00:50:40.782Z,1.70
2023-07-15T00:52:49.396Z,1.80
2023-07-15T00:54:57.092Z,2.00
2023-07-15T00:57:06.209Z,2.00
2023-07-15T00:59:17.374Z,1.90
2023-07-15T01:01:26.325Z,2.00
2023-07-15T01:03:36.218Z,1.90
2023-07-15T01:05:44.901Z,1.77
2023-07-15T01:07:54.150Z,1.90
2023-07-15T01:10:02.859Z,1.80
2023-07-15T01:12:10.488Z,2.03
2023-07-15T01:14:19.468Z,1.87
2023-07-15T01:16:29.765Z,2.23
2023-07-15T01:18:41.056Z,2.13
2023-07-15T01:20:52.195Z,2.20
2023-07-15T01:23:02.620Z,1.80
2023-07-15T01:25:11.570Z,1.90
2023-07-15T01:27:20.227Z,2.43
2023-07-15T01:29:29.102Z,2.03
2023-07-15T01:31:38.669Z,2.30
2023-07-15T01:33:48.470Z,1.80
2023-07-15T01:35:57.971Z,1.97
2023-07-15T01:38:08.268Z,2.00
2023-07-15T01:40:18.857Z,1.93
2023-07-15T01:42:28.141Z,2.20
2023-07-15T01:44:37.194Z,2.37
2023-07-15T01:46:45.061Z,2.00
2023-07-15T01:48:53.807Z,2.13
2023-07-15T01:51:02.763Z,2.10
2023-07-15T01:53:16.259Z,1.93
2023-07-15T01:55:25.413Z,2.40
2023-07-15T01:57:34.447Z,2.03
2023-07-15T01:59:43.259Z,2.30
2023-07-15T02:01:51.953Z,2.40
2023-07-15T02:04:01.057Z,2.27
2023-07-15T02:06:09.780Z,1.90
2023-07-15T02:08:23.640Z,2.10
2023-07-15T02:10:32.934Z,2.20
2023-07-15T02:12:41.616Z,2.37
2023-07-15T02:14:50.264Z,2.30
2023-07-15T02:17:01.489Z,2.00
2023-07-15T02:19:10.094Z,2.40
2023-07-15T02:21:17.752Z,2.23
2023-07-15T02:23:31.568Z,2.40
2023-07-15T02:25:40.288Z,2.03
2023-07-15T02:27:48.989Z,2.20
2023-07-15T02:29:57.852Z,2.20
2023-07-15T02:32:08.358Z,2.37
2023-07-15T02:34:17.469Z,2.43
2023-07-15T02:36:26.363Z,2.10
2023-07-15T02:38:36.467Z,2.20
2023-07-15T02:40:45.438Z,2.10
2023-07-15T02:42:54.924Z,2.07
2023-07-15T02:45:05.631Z,2.40
2023-07-15T02:47:14.655Z,2.20
2023-07-15T02:49:27.766Z,2.37
2023-07-15T02:51:36.719Z,2.10
2023-07-15T02:53:47.779Z,2.40
2023-07-15T02:55:57.668Z,2.43
2023-07-15T02:58:06.925Z,2.40
2023-07-15T03:00:17.311Z,2.07
2023-07-15T03:02:26.825Z,2.10
2023-07-15T03:04:35.645Z,2.27
2023-07-15T03:06:44.565Z,2.37
2023-07-15T03:08:54.944Z,2.47
2023-07-15T03:11:03.698Z,2.10
2023-07-15T03:13:12.316Z,2.20
2023-07-15T03:15:21.672Z,2.30
2023-07-15T03:17:36.780Z,2.23
2023-07-15T03:19:45.928Z,2.27
2023-07-15T03:21:54.906Z,2.30
2023-07-15T03:24:04.953Z,2.53
2023-07-15T03:26:13.885Z,2.67
2023-07-15T03:28:22.918Z,2.33
2023-07-15T03:30:31.946Z,2.47
2023-07-15T03:32:41.122Z,2.67
2023-07-15T03:34:50.214Z,2.23
2023-07-15T03:36:58.851Z,2.40
2023-07-15T03:39:09.230Z,2.47
2023-07-15T03:41:18.226Z,2.23
2023-07-15T03:43:26.908Z,2.60
2023-07-15T03:45:36.068Z,2.30
2023-07-15T03:47:45.852Z,2.07
2023-07-15T03:49:54.508Z,2.40
2023-07-15T03:52:05.398Z,2.43
2023-07-15T03:54:15.633Z,2.50
2023-07-15T03:56:24.683Z,2.00
2023-07-15T03:58:32.647Z,2.03
2023-07-15T04:00:42.343Z,2.43
2023-07-15T04:02:54.610Z,2.47
2023-07-15T04:05:03.300Z,2.33
2023-07-15T04:07:14.702Z,2.60
2023-07-15T04:09:24.871Z,2.60
2023-07-15T04:11:34.037Z,2.60
2023-07-15T04:13:42.906Z,2.40
2023-07-15T04:15:51.766Z,2.60
2023-07-15T04:18:02.675Z,2.17
2023-07-15T04:20:13.614Z,2.40
2023-07-15T04:22:22.639Z,2.33
2023-07-15T04:24:33.222Z,2.30
2023-07-15T04:26:46.481Z,2.80
2023-07-15T04:28:56.872Z,2.47
2023-07-15T04:31:05.454Z,2.33
2023-07-15T04:33:14.474Z,2.60
2023-07-15T04:35:23.053Z,2.57
2023-07-15T04:37:33.658Z,2.80
2023-07-15T04:39:45.792Z,2.43
2023-07-15T04:41:54.496Z,2.47
2023-07-15T04:44:03.199Z,2.43
2023-07-15T04:46:12.225Z,2.50
2023-07-15T04:48:21.344Z,2.70
2023-07-15T04:50:30.303Z,2.60
2023-07-15T04:52:41.434Z,2.83
2023-07-15T04:54:51.689Z,2.50
2023-07-15T04:57:01.428Z,2.53
2023-07-15T04:59:10.695Z,2.70
2023-07-15T05:01:21.255Z,2.50
2023-07-15T05:03:30.363Z,2.67
2023-07-15T05:05:40.978Z,2.73
2023-07-15T05:07:59.045Z,2.63
2023-07-15T05:10:10.067Z,2.30
2023-07-15T05:12:18.697Z,2.47
2023-07-15T05:14:29.667Z,2.47
2023-07-15T05:16:38.795Z,2.40
2023-07-15T05:18:50.584Z,2.73
2023-07-15T05:20:59.212Z,2.63
2023-07-15T05:23:08.548Z,2.33
2023-07-15T05:25:19.194Z,2.73
2023-07-15T05:27:30.744Z,2.60
2023-07-15T05:29:39.373Z,2.73
2023-07-15T05:31:48.243Z,3.03
2023-07-15T05:33:58.078Z,2.80
2023-07-15T05:36:10.176Z,3.17
2023-07-15T05:38:19.295Z,3.10
2023-07-15T05:40:29.631Z,2.87
2023-07-15T05:42:38.985Z,3.13
2023-07-15T05:44:48.231Z,2.60
2023-07-15T05:46:57.003Z,2.77
2023-07-15T05:49:07.423Z,2.73
2023-07-15T05:51:16.439Z,3.00
2023-07-15T05:53:25.735Z,2.80
2023-07-15T05:55:36.537Z,3.13
2023-07-15T05:57:45.531Z,3.00
2023-07-15T05:59:56.180Z,3.10
2023-07-15T06:02:05.123Z,3.00
2023-07-15T06:04:14.003Z,3.03
2023-07-15T06:06:22.894Z,3.27
2023-07-15T06:08:33.211Z,3.17
2023-07-15T06:10:45.447Z,2.73
2023-07-15T06:13:00.283Z,3.23
2023-07-15T06:15:09.619Z,2.90
2023-07-15T06:17:18.477Z,2.93
2023-07-15T06:19:27.914Z,3.20
2023-07-15T06:21:36.990Z,3.30
2023-07-15T06:23:45.969Z,3.20
2023-07-15T06:25:56.261Z,3.30
2023-07-15T06:28:04.969Z,3.47
2023-07-15T06:30:13.823Z,3.13
2023-07-15T06:32:22.761Z,3.37
2023-07-15T06:34:32.516Z,3.70
2023-07-15T06:36:41.273Z,3.30
2023-07-15T06:38:50.381Z,3.37
2023-07-15T06:41:01.133Z,3.67
2023-07-15T06:43:10.948Z,3.40
2023-07-15T06:45:21.451Z,3.30
2023-07-15T06:47:30.450Z,3.57
2023-07-15T06:49:39.126Z,3.50
2023-07-15T06:51:47.777Z,3.53
2023-07-15T06:53:56.312Z,3.70
2023-07-15T06:56:18.966Z,3.67
2023-07-15T06:58:29.142Z,3.30
2023-07-15T07:00:38.156Z,3.60
2023-07-15T07:02:48.919Z,3.23
2023-07-15T07:04:59.247Z,3.70
2023-07-15T07:07:08.163Z,3.77
2023-07-15T07:09:16.891Z,3.50
2023-07-15T07:11:27.125Z,3.40
2023-07-15T07:13:36.533Z,3.80
2023-07-15T07:15:45.589Z,3.63
2023-07-15T07:17:57.205Z,3.80
2023-07-15T07:20:06.120Z,3.70
2023-07-15T07:22:15.111Z,4.00
2023-07-15T07:24:23.711Z,3.33
2023-07-15T07:26:34.231Z,3.60
2023-07-15T07:28:43.492Z,3.50
2023-07-15T07:30:52.326Z,3.60
2023-07-15T07:33:01.506Z,3.13
2023-07-15T07:35:10.457Z,3.43
2023-07-15T07:37:20.570Z,3.57
2023-07-15T07:39:31.755Z,3.90
2023-07-15T07:41:44.850Z,3.90
2023-07-15T07:43:53.545Z,3.87
2023-07-15T07:46:01.919Z,3.60
2023-07-15T07:48:11.028Z,4.23
2023-07-15T07:50:20.093Z,3.50
2023-07-15T07:52:28.558Z,3.67
2023-07-15T07:54:37.178Z,3.53
2023-07-15T07:56:47.717Z,3.80
2023-07-15T07:58:58.948Z,3.83
2023-07-15T08:01:07.510Z,3.43
2023-07-15T08:03:16.722Z,3.13
2023-07-15T08:05:26.016Z,2.83
2023-07-15T08:07:35.230Z,3.37
2023-07-15T08:09:46.089Z,3.40
2023-07-15T08:11:56.896Z,3.23
2023-07-15T08:14:05.611Z,2.80
2023-07-15T08:16:30.331Z,2.40
2023-07-15T08:18:39.030Z,2.97
2023-07-15T08:20:52.390Z,2.50
2023-07-15T08:23:01.514Z,2.17
2023-07-15T08:25:13.445Z,2.10
2023-07-15T08:27:23.750Z,2.27
2023-07-15T08:29:32.946Z,2.20
2023-07-15T08:31:41.635Z,2.40
2023-07-15T08:33:49.424Z,2.53
2023-07-15T08:35:58.057Z,2.70
2023-07-15T08:38:06.740Z,2.60
2023-07-15T08:40:15.644Z,2.17
2023-07-15T08:42:26.618Z,2.47
2023-07-15T08:44:35.594Z,2.70
2023-07-15T08:46:44.669Z,2.30
2023-07-15T08:48:54.043Z,2.30
2023-07-15T08:51:03.353Z,2.30
2023-07-15T08:53:15.786Z,2.27
2023-07-15T08:55:24.789Z,2.00
2023-07-15T08:57:35.767Z,2.07
2023-07-15T08:59:44.789Z,1.80
2023-07-15T09:01:54.189Z,1.60
2023-07-15T09:04:03.375Z,2.07
2023-07-15T09:06:12.600Z,1.90
2023-07-15T09:08:21.319Z,2.10
2023-07-15T09:10:30.640Z,2.40
2023-07-15T09:12:40.885Z,1.97
2023-07-15T09:14:53.791Z,1.90
2023-07-15T09:17:03.151Z,2.00
2023-07-15T09:19:12.239Z,1.60
2023-07-15T09:21:22.684Z,1.87
2023-07-15T09:23:31.734Z,1.80
2023-07-15T09:25:43.157Z,2.00
2023-07-15T09:27:53.348Z,1.70
2023-07-15T09:30:02.498Z,1.83
2023-07-15T09:32:11.365Z,1.90
2023-07-15T09:34:20.734Z,1.90
2023-07-15T09:36:31.923Z,1.90
2023-07-15T09:38:41.617Z,1.97
2023-07-15T09:40:50.178Z,1.70
2023-07-15T09:43:04.055Z,1.80
2023-07-15T09:45:14.260Z,2.23
2023-07-15T09:47:23.883Z,2.30
2023-07-15T09:49:32.594Z,1.77
2023-07-15T09:51:44.499Z,1.60
2023-07-15T09:53:53.827Z,1.70
2023-07-15T09:56:06.134Z,1.80
2023-07-15T09:58:19.193Z,1.60
2023-07-15T10:00:34.385Z,2.00
2023-07-15T10:02:44.646Z,2.13
2023-07-15T10:04:55.048Z,1.80
2023-07-15T10:07:04.917Z,1.87
2023-07-15T10:09:14.038Z,1.90
2023-07-15T10:11:23.133Z,1.87
2023-07-15T10:13:33.797Z,1.70
2023-07-15T10:15:42.418Z,1.80
2023-07-15T10:17:51.725Z,1.73
2023-07-15T10:20:05.529Z,1.70
2023-07-15T10:22:14.977Z,1.60
2023-07-15T10:24:23.589Z,1.60
2023-07-15T10:26:34.288Z,1.67
2023-07-15T10:28:44.757Z,1.60
2023-07-15T10:31:08.981Z,4.63
2023-07-15T10:33:25.969Z,3.63
2023-07-15T10:35:35.468Z,1.70
2023-07-15T10:37:44.516Z,2.10
2023-07-15T10:39:53.579Z,1.90
2023-07-15T10:42:10.162Z,1.70
2023-07-15T10:44:21.607Z,2.10
2023-07-15T10:46:32.752Z,1.87
2023-07-15T10:48:41.867Z,1.80
2023-07-15T10:50:51.362Z,1.90
2023-07-15T10:53:20.424Z,1.67
2023-07-15T10:55:29.142Z,1.90
2023-07-15T10:57:52.950Z,1.90
2023-07-15T11:00:10.617Z,1.80
2023-07-15T11:02:19.581Z,1.60
2023-07-15T11:04:28.980Z,1.67
2023-07-15T11:06:38.636Z,1.50
2023-07-15T11:08:47.468Z,1.80
2023-07-15T11:11:00.511Z,1.60
2023-07-15T11:13:16.010Z,1.70
2023-07-15T11:15:31.109Z,1.80
2023-07-15T11:17:42.702Z,1.80
2023-07-15T11:19:52.649Z,1.93
2023-07-15T11:22:02.526Z,1.90
2023-07-15T11:24:13.193Z,1.60
2023-07-15T11:26:28.110Z,2.30
2023-07-15T11:28:36.723Z,1.73
2023-07-15T11:30:47.700Z,2.47
2023-07-15T11:32:56.658Z,2.30
2023-07-15T11:35:14.220Z,1.77
2023-07-15T11:37:23.194Z,2.13
2023-07-15T11:39:30.894Z,2.07
2023-07-15T11:41:40.253Z,1.80
2023-07-15T11:43:52.879Z,2.33
2023-07-15T11:46:03.905Z,2.17
2023-07-15T11:48:12.791Z,2.37
2023-07-15T11:50:21.724Z,2.00
2023-07-15T11:52:30.741Z,2.03
2023-07-15T11:54:39.694Z,2.03
2023-07-15T11:56:49.185Z,2.00
2023-07-15T11:58:57.877Z,2.10
2023-07-15T12:01:08.732Z,1.80
2023-07-15T12:03:17.503Z,2.00
2023-07-15T12:05:26.610Z,1.93
2023-07-15T12:07:35.312Z,2.00
2023-07-15T12:09:44.236Z,2.33
2023-07-15T12:11:53.015Z,2.13
2023-07-15T12:14:02.661Z,2.00
2023-07-15T12:16:13.805Z,1.80
2023-07-15T12:18:22.634Z,1.80
2023-07-15T12:20:32.035Z,2.00
2023-07-15T12:22:43.072Z,2.37
2023-07-15T12:24:51.749Z,1.83
2023-07-15T12:27:00.503Z,2.10
2023-07-15T12:29:09.464Z,1.93
2023-07-15T12:31:20.699Z,2.13
2023-07-15T12:33:29.872Z,2.13
2023-07-15T12:35:38.591Z,2.00
2023-07-15T12:37:50.152Z,2.10
2023-07-15T12:39:58.766Z,2.00
2023-07-15T12:42:08.100Z,2.13
2023-07-15T12:44:17.248Z,2.10
2023-07-15T12:46:27.446Z,2.73
2023-07-15T12:48:36.845Z,2.20
2023-07-15T12:50:45.895Z,2.30
2023-07-15T12:52:53.493Z,2.10
2023-07-15T12:55:04.131Z,2.07
2023-07-15T12:57:13.176Z,2.07
2023-07-15T12:59:21.723Z,2.13
2023-07-15T13:01:32.502Z,1.97
2023-07-15T13:03:41.173Z,2.10
2023-07-15T13:05:50.360Z,2.30
2023-07-15T13:07:58.916Z,1.90
2023-07-15T13:10:07.985Z,2.30
2023-07-15T13:12:16.683Z,3.90
2023-07-15T13:14:26.622Z,3.10
2023-07-15T13:16:36.865Z,2.20
2023-07-15T13:18:47.612Z,2.30
2023-07-15T13:20:56.808Z,2.30
2023-07-15T13:23:05.846Z,2.43
2023-07-15T13:25:14.757Z,2.30
2023-07-15T13:27:23.892Z,2.50
2023-07-15T13:29:32.602Z,1.90
2023-07-15T13:31:43.083Z,2.13
2023-07-15T13:33:51.786Z,2.13
2023-07-15T13:36:00.810Z,2.10
2023-07-15T13:38:09.939Z,2.33
2023-07-15T13:40:18.630Z,2.07
2023-07-15T13:42:27.291Z,2.10
2023-07-15T13:44:36.556Z,2.10
2023-07-15T13:46:46.922Z,2.13
2023-07-15T13:48:55.846Z,2.37
2023-07-15T13:51:03.369Z,2.37
2023-07-15T13:53:12.189Z,2.83
2023-07-15T13:55:21.072Z,5.37
2023-07-15T13:57:30.215Z,2.20
2023-07-15T13:59:39.510Z,12.70
2023-07-15T14:01:50.707Z,11.73
2023-07-15T14:03:59.740Z,14.67
2023-07-15T14:06:08.694Z,12.77
2023-07-15T14:08:21.236Z,11.87
2023-07-15T14:10:29.925Z,16.03
2023-07-15T14:12:38.764Z,8.30
2023-07-15T14:14:47.394Z,3.33
2023-07-15T14:16:57.837Z,3.47
2023-07-15T14:19:06.630Z,2.47
2023-07-15T14:21:15.469Z,2.57
2023-07-15T14:23:28.276Z,2.93
2023-07-15T14:25:37.289Z,2.70
2023-07-15T14:27:46.080Z,2.47
2023-07-15T14:29:55.059Z,2.90
2023-07-15T14:32:06.296Z,2.67
2023-07-15T14:34:18.232Z,2.63
2023-07-15T14:36:27.551Z,2.83
2023-07-15T14:38:35.151Z,2.40
2023-07-15T14:40:46.528Z,2.40
2023-07-15T14:42:55.405Z,2.30
2023-07-15T14:45:03.141Z,2.13
2023-07-15T14:47:13.499Z,2.40
2023-07-15T14:49:24.989Z,2.70
2023-07-15T14:51:34.725Z,2.40
2023-07-15T14:53:46.449Z,2.40
2023-07-15T14:55:55.401Z,2.20
2023-07-15T14:58:04.303Z,2.50
2023-07-15T15:00:14.041Z,2.30
2023-07-15T15:02:24.360Z,2.00
2023-07-15T15:04:33.413Z,2.10
2023-07-15T15:06:43.266Z,2.10
2023-07-15T15:08:53.209Z,2.20
2023-07-15T15:11:02.210Z,2.23
2023-07-15T15:13:10.839Z,2.30
2023-07-15T15:15:19.576Z,3.00
2023-07-15T15:17:30.019Z,5.27
2023-07-15T15:19:38.619Z,5.73
2023-07-15T15:21:47.259Z,2.60
2023-07-15T15:23:56.184Z,3.10
2023-07-15T15:26:04.867Z,2.67
2023-07-15T15:28:13.591Z,2.93
2023-07-15T15:30:22.406Z,2.80
2023-07-15T15:32:33.450Z,2.90
2023-07-15T15:34:42.741Z,2.50
2023-07-15T15:36:51.348Z,2.87
2023-07-15T15:39:00.058Z,2.57
2023-07-15T15:41:09.085Z,2.63
2023-07-15T15:43:18.314Z,2.80
2023-07-15T15:45:27.143Z,2.70
2023-07-15T15:47:39.072Z,2.67
2023-07-15T15:49:48.117Z,2.80
2023-07-15T15:51:56.959Z,3.30
2023-07-15T15:54:05.853Z,2.70
2023-07-15T15:56:14.657Z,2.67
2023-07-15T15:58:23.536Z,2.80
2023-07-15T16:00:32.462Z,2.60
2023-07-15T16:02:42.743Z,3.03
2023-07-15T16:04:51.601Z,3.10
2023-07-15T16:07:00.301Z,3.33
2023-07-15T16:09:07.948Z,3.27
2023-07-15T16:11:16.936Z,2.70
2023-07-15T16:13:25.785Z,3.70
2023-07-15T16:15:34.428Z,3.30
2023-07-15T16:17:45.884Z,2.73
2023-07-15T16:19:56.443Z,2.73
2023-07-15T16:22:05.280Z,2.60
2023-07-15T16:24:14.138Z,2.80
2023-07-15T16:26:22.770Z,2.73
2023-07-15T16:28:32.094Z,2.37
2023-07-15T16:30:41.941Z,2.77
2023-07-15T16:32:52.480Z,3.40
2023-07-15T16:35:01.469Z,4.00
2023-07-15T16:37:10.570Z,5.13
2023-07-15T16:39:19.332Z,2.90
2023-07-15T16:41:28.344Z,3.07
2023-07-15T16:43:37.356Z,3.17
2023-07-15T16:45:46.047Z,3.13
2023-07-15T16:47:56.296Z,3.70
2023-07-15T16:50:05.197Z,3.43
2023-07-15T16:52:14.401Z,3.50
2023-07-15T16:54:23.138Z,3.17
2023-07-15T16:56:31.648Z,3.33
2023-07-15T16:58:40.758Z,3.07
2023-07-15T17:00:49.324Z,3.47
2023-07-15T17:02:59.833Z,3.40
2023-07-15T17:05:09.183Z,2.97
2023-07-15T17:07:19.875Z,3.40
2023-07-15T17:09:35.018Z,2.93
2023-07-15T17:11:43.678Z,3.10
2023-07-15T17:13:52.409Z,2.60
2023-07-15T17:16:01.029Z,2.60
2023-07-15T17:18:11.503Z,2.73
2023-07-15T17:20:20.341Z,2.77
2023-07-15T17:22:29.482Z,2.50
2023-07-15T17:24:38.208Z,2.70
2023-07-15T17:26:46.817Z,2.03
2023-07-15T17:28:54.414Z,2.40
2023-07-15T17:31:03.740Z,2.30
2023-07-15T17:33:13.817Z,2.17
2023-07-15T17:35:22.535Z,2.40
2023-07-15T17:37:31.380Z,2.17
2023-07-15T17:39:39.931Z,2.00
2023-07-15T17:41:48.661Z,2.13
2023-07-15T17:43:58.197Z,2.10
2023-07-15T17:46:07.024Z,2.20
2023-07-15T17:48:17.716Z,2.00
2023-07-15T17:50:26.574Z,2.20
2023-07-15T17:52:35.361Z,1.90
2023-07-15T17:54:44.053Z,2.30
2023-07-15T17:56:52.751Z,2.10
2023-07-15T17:59:01.773Z,2.17
2023-07-15T18:01:13.468Z,2.07
2023-07-15T18:03:26.456Z,2.13
2023-07-15T18:05:35.381Z,2.10
2023-07-15T18:07:44.201Z,1.90
2023-07-15T18:09:52.860Z,2.13
2023-07-15T18:12:01.513Z,2.10
2023-07-15T18:14:10.209Z,2.33
2023-07-15T18:16:20.805Z,2.10
2023-07-15T18:18:30.918Z,1.77
2023-07-15T18:20:41.166Z,1.90
2023-07-15T18:22:50.024Z,2.10
2023-07-15T18:24:58.698Z,1.97
2023-07-15T18:27:07.337Z,2.20
2023-07-15T18:29:16.045Z,2.03
2023-07-15T18:31:25.850Z,2.00
2023-07-15T18:33:36.062Z,2.10
2023-07-15T18:35:46.646Z,1.90
2023-07-15T18:37:55.327Z,2.10
2023-07-15T18:40:03.899Z,2.10
2023-07-15T18:42:16.042Z,2.30
2023-07-15T18:44:24.681Z,2.57
2023-07-15T18:46:33.503Z,2.70
2023-07-15T18:48:43.706Z,2.60
2023-07-15T18:50:52.878Z,2.37
2023-07-15T18:53:05.072Z,2.73
2023-07-15T18:55:13.878Z,2.80
2023-07-15T18:57:23.594Z,2.63
2023-07-15T18:59:32.766Z,2.40
2023-07-15T19:01:41.478Z,2.50
2023-07-15T19:03:51.722Z,2.60
2023-07-15T19:06:00.714Z,2.77
2023-07-15T19:08:09.839Z,3.00
2023-07-15T19:10:18.670Z,2.73
2023-07-15T19:12:27.634Z,2.97
2023-07-15T19:14:36.555Z,3.53
2023-07-15T19:16:45.197Z,4.40
2023-07-15T19:18:55.428Z,3.90
2023-07-15T19:21:04.139Z,3.93
2023-07-15T19:23:16.142Z,3.83
2023-07-15T19:25:25.172Z,3.33
2023-07-15T19:27:34.097Z,3.20
2023-07-15T19:29:44.846Z,3.10
2023-07-15T19:31:53.841Z,3.10
2023-07-15T19:34:03.857Z,3.43
2023-07-15T19:36:12.618Z,3.00
2023-07-15T19:38:21.746Z,3.30
2023-07-15T19:40:30.662Z,3.50
2023-07-15T19:42:40.785Z,3.87
2023-07-15T19:44:49.778Z,3.13
2023-07-15T19:46:58.584Z,3.73
2023-07-15T19:49:08.701Z,3.70
2023-07-15T19:51:24.708Z,3.67
2023-07-15T19:53:40.088Z,4.30
2023-07-15T19:55:48.961Z,4.10
2023-07-15T19:58:00.030Z,3.60
2023-07-15T20:00:09.737Z,4.10
2023-07-15T20:02:20.760Z,3.90
2023-07-15T20:04:31.366Z,3.77
2023-07-15T20:06:40.380Z,3.50
2023-07-15T20:08:49.031Z,3.50
2023-07-15T20:10:58.238Z,3.57
2023-07-15T20:13:09.071Z,4.00
2023-07-15T20:15:18.228Z,4.20
2023-07-15T20:17:26.888Z,3.80
2023-07-15T20:19:37.006Z,3.37
2023-07-15T20:21:45.899Z,3.67
2023-07-15T20:23:54.933Z,3.40
2023-07-15T20:26:04.704Z,3.30
2023-07-15T20:28:25.430Z,3.27
2023-07-15T20:30:36.824Z,3.40
2023-07-15T20:32:45.388Z,3.53
2023-07-15T20:34:55.707Z,3.50
2023-07-15T20:37:04.503Z,3.23
2023-07-15T20:39:16.319Z,3.57
2023-07-15T20:41:25.314Z,3.70
2023-07-15T20:43:33.090Z,3.60
2023-07-15T20:45:41.641Z,3.23
2023-07-15T20:47:50.281Z,3.33
2023-07-15T20:50:02.472Z,3.47
2023-07-15T20:52:11.174Z,3.40
2023-07-15T20:54:20.053Z,3.20
2023-07-15T20:56:31.621Z,3.40
2023-07-15T20:58:40.356Z,3.20
2023-07-15T21:00:51.821Z,3.33
2023-07-15T21:03:01.155Z,3.30
2023-07-15T21:05:11.713Z,3.43
2023-07-15T21:07:20.728Z,3.30
2023-07-15T21:09:29.837Z,3.27
2023-07-15T21:11:38.676Z,3.27
2023-07-15T21:13:47.357Z,3.30
2023-07-15T21:15:57.302Z,3.40
2023-07-15T21:18:06.255Z,3.73
2023-07-15T21:20:17.335Z,3.50
2023-07-15T21:22:26.168Z,4.00
2023-07-15T21:24:35.514Z,3.73
2023-07-15T21:26:44.267Z,3.73
2023-07-15T21:28:52.993Z,3.83
2023-07-15T21:31:01.993Z,3.90
2023-07-15T21:33:11.010Z,3.83
2023-07-15T21:35:21.149Z,4.33
2023-07-15T21:37:29.887Z,3.53
2023-07-15T21:39:42.014Z,3.73
2023-07-15T21:41:50.716Z,4.00
2023-07-15T21:43:59.711Z,3.80
2023-07-15T21:46:08.819Z,3.80
2023-07-15T21:48:19.164Z,3.30
2023-07-15T21:50:29.544Z,3.90
2023-07-15T21:52:38.348Z,3.80
2023-07-15T21:54:47.008Z,3.50
2023-07-15T21:56:56.714Z,3.60
2023-07-15T21:59:17.864Z,3.53
2023-07-15T22:01:26.496Z,3.47
2023-07-15T22:03:35.293Z,3.77
2023-07-15T22:05:46.524Z,3.20
2023-07-15T22:07:58.060Z,3.60
2023-07-15T22:10:10.224Z,3.57
2023-07-15T22:12:19.115Z,3.60
2023-07-15T22:14:28.209Z,3.43
2023-07-15T22:16:37.136Z,3.43
2023-07-15T22:18:46.105Z,3.50
2023-07-15T22:20:56.088Z,3.40
2023-07-15T22:23:05.219Z,3.07
2023-07-15T22:25:14.732Z,3.40
2023-07-15T22:27:25.395Z,3.80
2023-07-15T22:29:33.997Z,3.13
2023-07-15T22:31:42.668Z,3.27
2023-07-15T22:33:51.646Z,3.10
2023-07-15T22:36:02.327Z,3.10
2023-07-15T22:38:15.690Z,3.70
2023-07-15T22:40:25.533Z,3.50
2023-07-15T22:42:34.136Z,3.77
2023-07-15T22:44:42.940Z,3.50
2023-07-15T22:46:51.806Z,3.40
2023-07-15T22:49:02.636Z,3.70
2023-07-15T22:51:13.112Z,3.57
2023-07-15T22:53:21.766Z,3.30
2023-07-15T22:55:30.431Z,3.57
2023-07-15T22:57:39.029Z,3.93
2023-07-15T22:59:47.545Z,3.03
2023-07-15T23:01:56.276Z,3.70
2023-07-15T23:04:04.934Z,4.43
2023-07-15T23:06:15.758Z,3.70
2023-07-15T23:08:24.769Z,3.60
2023-07-15T23:10:33.405Z,3.60
2023-07-15T23:12:42.535Z,3.47
2023-07-15T23:14:51.278Z,3.50
2023-07-15T23:17:00.059Z,3.73
2023-07-15T23:19:08.910Z,3.40
2023-07-15T23:21:19.072Z,3.50
2023-07-15T23:23:26.781Z,3.10
2023-07-15T23:25:36.177Z,3.60
2023-07-15T23:27:46.428Z,3.37
2023-07-15T23:29:55.255Z,3.47
2023-07-15T23:32:04.207Z,3.30
2023-07-15T23:34:12.700Z,3.33
2023-07-15T23:36:23.651Z,3.60
2023-07-15T23:38:32.440Z,2.93
2023-07-15T23:40:41.355Z,3.50
2023-07-15T23:42:52.000Z,3.40
2023-07-15T23:45:02.566Z,3.10
2023-07-15T23:47:11.468Z,3.40
2023-07-15T23:49:20.291Z,3.20
2023-07-15T23:51:30.723Z,3.37
2023-07-15T23:53:39.297Z,3.27
2023-07-15T23:55:48.002Z,3.40
2023-07-15T23:57:57.030Z,3.20
